Saratoga, California
Current Conditions -  °F | °C
As of 9:53 AM on Thursday 27 Nov 2014 (Local Time) from KSJC Reporting Station
Overcast Overcast  
Wind Chill: 55°   Ceiling: 15000
Heat Index: 55°   Visibility: 9mi
Dew Point: 44°   Wind: 0mph
Humidity: 67%   Direction: NA
Pressure: 30.19"   Gusts: NA
Location:  37.27°N, 122.01°W
Report Text: KSJC 271753Z 00000KT 9SM FEW100 BKN150 OVC250 13/07 A3019 RMK AO2 SLP221 T01280067 10133 20061 50002
Loading
Personal Weather Stations






























Interactive Weather Map New forecast layout! Learn more

10-Day Weather Forecast

Advertisements
Track Severe Weather on mobile